sensor_id;sensor_type;location;lat;lon;timestamp;pressure;altitude;pressure_sealevel;temperature;humidity
43298;BME280;28892;55.640;37.532;2023-09-19T01:30:56;99286.28;;;13.39;70.47
43298;BME280;28892;55.640;37.532;2023-09-19T01:33:24;99278.25;;;13.25;70.59
43298;BME280;28892;55.640;37.532;2023-09-19T01:35:52;99282.13;;;13.23;70.69
43298;BME280;28892;55.640;37.532;2023-09-19T01:38:19;99275.56;;;13.19;71.09
43298;BME280;28892;55.640;37.532;2023-09-19T01:40:56;99278.28;;;13.32;70.87
43298;BME280;28892;55.640;37.532;2023-09-19T01:43:37;99279.72;;;13.35;70.90
43298;BME280;28892;55.640;37.532;2023-09-19T01:46:13;99277.03;;;13.28;70.96
43298;BME280;28892;55.640;37.532;2023-09-19T01:49:03;99275.19;;;13.28;71.32
43298;BME280;28892;55.640;37.532;2023-09-19T01:54:12;99262.41;;;13.10;71.51
43298;BME280;28892;55.640;37.532;2023-09-19T01:56:52;99259.16;;;13.15;71.42
43298;BME280;28892;55.640;37.532;2023-09-19T01:59:25;99254.81;;;13.07;71.85
43298;BME280;28892;55.640;37.532;2023-09-19T02:01:54;99248.03;;;13.05;71.43
43298;BME280;28892;55.640;37.532;2023-09-19T02:04:21;99246.44;;;13.10;71.56
43298;BME280;28892;55.640;37.532;2023-09-19T02:06:47;99237.75;;;12.95;71.61
43298;BME280;28892;55.640;37.532;2023-09-19T02:09:14;99242.06;;;12.96;71.78
43298;BME280;28892;55.640;37.532;2023-09-19T02:11:40;99236.91;;;12.88;71.83
43298;BME280;28892;55.640;37.532;2023-09-19T02:14:08;99248.31;;;12.81;72.51
43298;BME280;28892;55.640;37.532;2023-09-19T02:16:37;99242.88;;;12.96;72.19
43298;BME280;28892;55.640;37.532;2023-09-19T02:19:03;99237.94;;;12.87;71.56
43298;BME280;28892;55.640;37.532;2023-09-19T02:21:33;99249.38;;;12.87;72.01
43298;BME280;28892;55.640;37.532;2023-09-19T02:23:59;99244.50;;;12.91;72.17
43298;BME280;28892;55.640;37.532;2023-09-19T02:26:25;99246.28;;;12.83;72.14
43298;BME280;28892;55.640;37.532;2023-09-19T02:28:55;99236.34;;;12.99;71.48
43298;BME280;28892;55.640;37.532;2023-09-19T02:31:21;99233.59;;;12.79;72.07
43298;BME280;28892;55.640;37.532;2023-09-19T02:33:47;99232.50;;;12.73;72.40
43298;BME280;28892;55.640;37.532;2023-09-19T02:36:13;99233.97;;;12.76;72.36
43298;BME280;28892;55.640;37.532;2023-09-19T02:38:42;99231.69;;;12.73;72.54
43298;BME280;28892;55.640;37.532;2023-09-19T02:41:08;99237.25;;;12.78;72.83
43298;BME280;28892;55.640;37.532;2023-09-19T02:43:37;99229.09;;;12.86;72.42
43298;BME280;28892;55.640;37.532;2023-09-19T02:46:03;99225.41;;;12.87;71.55
43298;BME280;28892;55.640;37.532;2023-09-19T02:48:31;99233.03;;;12.90;71.59
43298;BME280;28892;55.640;37.532;2023-09-19T02:50:58;99234.56;;;12.78;72.23
43298;BME280;28892;55.640;37.532;2023-09-19T02:53:24;99234.56;;;12.78;72.09
43298;BME280;28892;55.640;37.532;2023-09-19T02:55:59;99235.88;;;12.89;71.92
43298;BME280;28892;55.640;37.532;2023-09-19T02:58:38;99229.69;;;12.81;71.83
43298;BME280;28892;55.640;37.532;2023-09-19T03:01:12;99231.72;;;12.79;72.31
43298;BME280;28892;55.640;37.532;2023-09-19T03:03:50;99241.16;;;12.82;72.39
43298;BME280;28892;55.640;37.532;2023-09-19T03:06:23;99236.03;;;12.80;72.11
43298;BME280;28892;55.640;37.532;2023-09-19T03:08:50;99239.31;;;12.82;71.55
43298;BME280;28892;55.640;37.532;2023-09-19T03:12:20;99233.69;;;12.99;71.57
43298;BME280;28892;55.640;37.532;2023-09-19T03:14:46;99233.91;;;12.69;72.03
43298;BME280;28892;55.640;37.532;2023-09-19T03:17:12;99239.66;;;12.66;72.69
43298;BME280;28892;55.640;37.532;2023-09-19T03:19:41;99231.03;;;12.64;72.49
43298;BME280;28892;55.640;37.532;2023-09-19T03:22:07;99229.22;;;12.71;72.43
43298;BME280;28892;55.640;37.532;2023-09-19T03:24:33;99231.53;;;12.81;71.83
43298;BME280;28892;55.640;37.532;2023-09-19T03:27:02;99230.69;;;12.74;72.00
43298;BME280;28892;55.640;37.532;2023-09-19T03:29:29;99237.06;;;12.79;71.91
43298;BME280;28892;55.640;37.532;2023-09-19T03:31:55;99237.88;;;12.80;71.86
43298;BME280;28892;55.640;37.532;2023-09-19T03:34:44;99240.84;;;12.98;71.74
43298;BME280;28892;55.640;37.532;2023-09-19T03:41:17;99242.06;;;12.96;71.84
43298;BME280;28892;55.640;37.532;2023-09-19T03:44:22;99227.41;;;12.71;71.44
43298;BME280;28892;55.640;37.532;2023-09-19T03:46:48;99228.56;;;12.62;72.63
43298;BME280;28892;55.640;37.532;2023-09-19T03:49:15;99230.19;;;12.63;72.62
43298;BME280;28892;55.640;37.532;2023-09-19T03:51:46;99236.44;;;12.77;72.36
43298;BME280;28892;55.640;37.532;2023-09-19T03:55:17;99228.88;;;12.81;72.29
43298;BME280;28892;55.640;37.532;2023-09-19T03:58:27;99224.59;;;12.80;72.21
43298;BME280;28892;55.640;37.532;2023-09-19T04:01:25;99239.75;;;12.86;72.59
43298;BME280;28892;55.640;37.532;2023-09-19T04:04:26;99229.66;;;12.75;71.97
43298;BME280;28892;55.640;37.532;2023-09-19T04:06:54;99226.81;;;12.76;71.91
43298;BME280;28892;55.640;37.532;2023-09-19T04:09:20;99233.97;;;12.76;72.10
43298;BME280;28892;55.640;37.532;2023-09-19T04:11:46;99231.13;;;12.77;71.69
43298;BME280;28892;55.640;37.532;2023-09-19T04:14:12;99230.81;;;12.65;72.24
43298;BME280;28892;55.640;37.532;2023-09-19T04:16:38;99227.97;;;12.67;72.81
43298;BME280;28892;55.640;37.532;2023-09-19T04:19:05;99218.78;;;12.69;72.72
43298;BME280;28892;55.640;37.532;2023-09-19T04:21:31;99222.06;;;12.71;73.00
43298;BME280;28892;55.640;37.532;2023-09-19T04:23:57;99207.16;;;12.77;72.40
43298;BME280;28892;55.640;37.532;2023-09-19T04:26:23;99212.53;;;12.91;71.65
43298;BME280;28892;55.640;37.532;2023-09-19T04:28:51;99210.06;;;12.89;71.58
43298;BME280;28892;55.640;37.532;2023-09-19T04:31:31;99213.03;;;13.14;71.19
43298;BME280;28892;55.640;37.532;2023-09-19T04:39:04;99209.16;;;13.17;70.80
43298;BME280;28892;55.640;37.532;2023-09-19T04:41:35;99215.00;;;12.92;71.04
43298;BME280;28892;55.640;37.532;2023-09-19T04:44:02;99209.41;;;12.80;71.88
43298;BME280;28892;55.640;37.532;2023-09-19T04:46:29;99210.22;;;12.74;71.99
43298;BME280;28892;55.640;37.532;2023-09-19T04:49:29;99214.19;;;12.92;72.81
43298;BME280;28892;55.640;37.532;2023-09-19T04:52:30;99208.25;;;12.90;72.25
43298;BME280;28892;55.640;37.532;2023-09-19T05:15:50;99194.53;;;13.48;71.59
43298;BME280;28892;55.640;37.532;2023-09-19T05:18:38;99192.69;;;13.49;70.84
43298;BME280;28892;55.640;37.532;2023-09-19T05:25:49;99179.00;;;13.59;69.63
43298;BME280;28892;55.640;37.532;2023-09-19T05:28:15;99174.06;;;13.55;70.04
43298;BME280;28892;55.640;37.532;2023-09-19T05:31:05;99179.84;;;13.79;70.30
43298;BME280;28892;55.640;37.532;2023-09-19T05:51:06;99173.59;;;15.19;66.35
43298;BME280;28892;55.640;37.532;2023-09-19T05:57:17;99169.31;;;15.11;66.04
43298;BME280;28892;55.640;37.532;2023-09-19T05:59:43;99169.00;;;15.33;65.90
43298;BME280;28892;55.640;37.532;2023-09-19T06:02:09;99169.44;;;15.30;66.21
43298;BME280;28892;55.640;37.532;2023-09-19T06:04:43;99165.84;;;15.43;66.13
43298;BME280;28892;55.640;37.532;2023-09-19T06:07:14;99170.50;;;15.22;65.61
43298;BME280;28892;55.640;37.532;2023-09-19T06:09:42;99173.41;;;15.20;65.54
43298;BME280;28892;55.640;37.532;2023-09-19T06:12:09;99168.22;;;15.26;65.92
43298;BME280;28892;55.640;37.532;2023-09-19T06:14:39;99164.50;;;15.27;65.70
43298;BME280;28892;55.640;37.532;2023-09-19T06:17:06;99168.22;;;15.26;65.77
43298;BME280;28892;55.640;37.532;2023-09-19T06:19:35;99167.47;;;15.50;65.26
43298;BME280;28892;55.640;37.532;2023-09-19T06:22:01;99153.09;;;15.77;64.53
43298;BME280;28892;55.640;37.532;2023-09-19T06:24:29;99159.66;;;16.06;63.49
43298;BME280;28892;55.640;37.532;2023-09-19T06:27:11;99158.63;;;16.08;63.17
43298;BME280;28892;55.640;37.532;2023-09-19T06:29:40;99170.09;;;16.15;63.50
43298;BME280;28892;55.640;37.532;2023-09-19T06:32:16;99165.72;;;16.20;63.41
43298;BME280;28892;55.640;37.532;2023-09-19T06:34:51;99159.63;;;16.32;62.78
43298;BME280;28892;55.640;37.532;2023-09-19T06:37:19;99153.06;;;16.28;62.89
43298;BME280;28892;55.640;37.532;2023-09-19T06:39:46;99156.22;;;15.99;62.94
43298;BME280;28892;55.640;37.532;2023-09-19T06:42:15;99156.69;;;15.89;63.42
43298;BME280;28892;55.640;37.532;2023-09-19T06:49:01;99170.75;;;15.53;64.87
43298;BME280;28892;55.640;37.532;2023-09-19T07:00:26;99166.13;;;15.67;64.74
43298;BME280;28892;55.640;37.532;2023-09-19T07:11:21;99166.41;;;15.84;64.19
43298;BME280;28892;55.640;37.532;2023-09-19T07:14:08;99162.03;;;15.96;63.97
43298;BME280;28892;55.640;37.532;2023-09-19T07:16:49;99166.66;;;16.08;64.12
43298;BME280;28892;55.640;37.532;2023-09-19T07:19:27;99157.25;;;16.24;63.63
43298;BME280;28892;55.640;37.532;2023-09-19T07:22:01;99154.63;;;16.36;63.94
43298;BME280;28892;55.640;37.532;2023-09-19T07:24:28;99163.66;;;16.60;62.64
43298;BME280;28892;55.640;37.532;2023-09-19T07:26:54;99158.22;;;16.29;63.20
43298;BME280;28892;55.640;37.532;2023-09-19T07:33:26;99169.00;;;16.41;63.52
43298;BME280;28892;55.640;37.532;2023-09-19T07:35:54;99160.97;;;16.23;63.95
43298;BME280;28892;55.640;37.532;2023-09-19T07:38:20;99169.41;;;16.19;64.00
43298;BME280;28892;55.640;37.532;2023-09-19T07:45:12;99167.25;;;16.54;63.29
43298;BME280;28892;55.640;37.532;2023-09-19T07:47:46;99158.44;;;16.46;63.57
43298;BME280;28892;55.640;37.532;2023-09-19T08:03:02;99141.22;;;17.10;62.27
43298;BME280;28892;55.640;37.532;2023-09-19T08:05:37;99131.81;;;17.08;62.61
43298;BME280;28892;55.640;37.532;2023-09-19T08:08:33;99139.03;;;17.50;61.71
43298;BME280;28892;55.640;37.532;2023-09-19T08:15:04;99137.88;;;17.45;61.01
43298;BME280;28892;55.640;37.532;2023-09-19T08:18:03;99126.00;;;17.53;61.41
43298;BME280;28892;55.640;37.532;2023-09-19T08:20:29;99112.81;;;17.76;60.53
43298;BME280;28892;55.640;37.532;2023-09-19T08:23:07;99120.19;;;18.52;59.22
43298;BME280;28892;55.640;37.532;2023-09-19T08:25:36;99125.25;;;19.18;57.34
43298;BME280;28892;55.640;37.532;2023-09-19T08:28:31;99124.47;;;19.86;55.51
43298;BME280;28892;55.640;37.532;2023-09-19T08:31:04;99126.34;;;19.68;55.89
43298;BME280;28892;55.640;37.532;2023-09-19T08:41:06;99107.50;;;18.76;57.26
43298;BME280;28892;55.640;37.532;2023-09-19T08:43:33;99117.78;;;18.79;57.63
43298;BME280;28892;55.640;37.532;2023-09-19T08:46:10;99109.50;;;18.69;58.11
43298;BME280;28892;55.640;37.532;2023-09-19T08:48:46;99100.47;;;18.46;58.54
43298;BME280;28892;55.640;37.532;2023-09-19T08:51:29;99093.38;;;18.04;59.57
43298;BME280;28892;55.640;37.532;2023-09-19T08:54:08;99101.22;;;18.06;59.86
43298;BME280;28892;55.640;37.532;2023-09-19T09:01:01;99110.31;;;18.05;60.37
43298;BME280;28892;55.640;37.532;2023-09-19T09:03:49;99103.75;;;18.00;60.51
43298;BME280;28892;55.640;37.532;2023-09-19T09:06:25;99091.75;;;17.91;60.67
43298;BME280;28892;55.640;37.532;2023-09-19T09:09:02;99105.66;;;18.12;60.44
43298;BME280;28892;55.640;37.532;2023-09-19T09:11:33;99098.63;;;18.35;59.82
43298;BME280;28892;55.640;37.532;2023-09-19T09:13:59;99095.44;;;18.38;59.89
43298;BME280;28892;55.640;37.532;2023-09-19T09:16:29;99083.91;;;18.37;59.69
43298;BME280;28892;55.640;37.532;2023-09-19T09:19:00;99098.97;;;18.26;59.83
43298;BME280;28892;55.640;37.532;2023-09-19T09:21:29;99088.59;;;18.30;60.38
43298;BME280;28892;55.640;37.532;2023-09-19T09:24:26;99090.13;;;18.67;59.17
43298;BME280;28892;55.640;37.532;2023-09-19T09:26:57;99089.56;;;18.65;59.23
43298;BME280;28892;55.640;37.532;2023-09-19T09:29:53;99102.25;;;18.98;59.25
43298;BME280;28892;55.640;37.532;2023-09-19T10:06:43;99068.91;;;22.96;50.05
43298;BME280;28892;55.640;37.532;2023-09-19T10:09:17;99066.50;;;23.10;49.08
43298;BME280;28892;55.640;37.532;2023-09-19T10:16:51;99056.53;;;23.47;48.37
43298;BME280;28892;55.640;37.532;2023-09-19T10:23:34;99048.34;;;23.89;47.70
43298;BME280;28892;55.640;37.532;2023-09-19T10:26:05;99050.56;;;23.45;48.00
43298;BME280;28892;55.640;37.532;2023-09-19T10:28:32;99050.81;;;23.17;48.98
43298;BME280;28892;55.640;37.532;2023-09-19T10:31:00;99048.94;;;23.49;49.39
43298;BME280;28892;55.640;37.532;2023-09-19T10:33:34;99041.06;;;23.63;48.96
43298;BME280;28892;55.640;37.532;2023-09-19T10:36:07;99034.00;;;23.67;48.22
43298;BME280;28892;55.640;37.532;2023-09-19T10:42:56;99035.94;;;23.20;48.76
43298;BME280;28892;55.640;37.532;2023-09-19T10:59:05;99004.25;;;23.62;49.95
43298;BME280;28892;55.640;37.532;2023-09-19T11:04:47;99010.19;;;23.80;48.53
43298;BME280;28892;55.640;37.532;2023-09-19T11:07:15;99011.47;;;23.93;48.04
43298;BME280;28892;55.640;37.532;2023-09-19T11:09:48;99023.09;;;24.09;47.63
43298;BME280;28892;55.640;37.532;2023-09-19T11:21:56;99015.91;;;23.47;49.00
43298;BME280;28892;55.640;37.532;2023-09-19T11:30:27;99008.59;;;23.63;49.31
43298;BME280;28892;55.640;37.532;2023-09-19T11:40:26;99009.69;;;23.15;50.59
43298;BME280;28892;55.640;37.532;2023-09-19T11:43:27;99005.00;;;22.54;52.02
43298;BME280;28892;55.640;37.532;2023-09-19T11:47:01;98994.19;;;22.43;51.69
43298;BME280;28892;55.640;37.532;2023-09-19T11:49:50;98999.75;;;22.21;52.41
43298;BME280;28892;55.640;37.532;2023-09-19T11:53:13;98994.38;;;22.26;52.95
43298;BME280;28892;55.640;37.532;2023-09-19T11:55:43;98979.97;;;22.00;52.74
43298;BME280;28892;55.640;37.532;2023-09-19T11:58:14;98985.19;;;22.17;53.13
43298;BME280;28892;55.640;37.532;2023-09-19T12:00:44;98979.31;;;22.46;52.88
43298;BME280;28892;55.640;37.532;2023-09-19T12:03:11;98977.09;;;22.38;52.85
43298;BME280;28892;55.640;37.532;2023-09-19T12:05:37;98974.66;;;22.31;52.98
43298;BME280;28892;55.640;37.532;2023-09-19T12:08:04;98977.91;;;22.28;53.14
43298;BME280;28892;55.640;37.532;2023-09-19T12:10:45;98970.91;;;22.42;53.58
43298;BME280;28892;55.640;37.532;2023-09-19T12:13:16;98965.75;;;22.36;53.02
43298;BME280;28892;55.640;37.532;2023-09-19T12:15:42;98954.91;;;22.10;53.13
43298;BME280;28892;55.640;37.532;2023-09-19T12:18:39;98957.34;;;22.22;53.64
43298;BME280;28892;55.640;37.532;2023-09-19T12:21:28;98960.09;;;22.42;53.30
43298;BME280;28892;55.640;37.532;2023-09-19T12:24:07;98949.88;;;22.44;53.45
43298;BME280;28892;55.640;37.532;2023-09-19T12:26:43;98953.38;;;22.40;53.70
43298;BME280;28892;55.640;37.532;2023-09-19T12:29:13;98941.19;;;22.37;53.70
43298;BME280;28892;55.640;37.532;2023-09-19T12:31:59;98956.94;;;22.71;52.58
43298;BME280;28892;55.640;37.532;2023-09-19T12:35:54;98942.88;;;22.69;53.01
43298;BME280;28892;55.640;37.532;2023-09-19T12:38:28;98939.38;;;22.64;52.34
43298;BME280;28892;55.640;37.532;2023-09-19T12:45:31;98927.75;;;22.79;52.42
43298;BME280;28892;55.640;37.532;2023-09-19T12:48:33;98928.03;;;22.72;52.57
43298;BME280;28892;55.640;37.532;2023-09-19T12:51:15;98923.69;;;22.92;50.22
43298;BME280;28892;55.640;37.532;2023-09-19T13:02:05;98919.91;;;22.93;49.92
43298;BME280;28892;55.640;37.532;2023-09-19T13:05:49;98931.25;;;22.79;50.30
43298;BME280;28892;55.640;37.532;2023-09-19T13:09:22;98919.13;;;22.77;51.49
43298;BME280;28892;55.640;37.532;2023-09-19T13:12:36;98927.41;;;22.28;52.82
43298;BME280;28892;55.640;37.532;2023-09-19T13:15:11;98914.94;;;22.17;53.13
43298;BME280;28892;55.640;37.532;2023-09-19T13:17:52;98918.44;;;22.17;54.00
43298;BME280;28892;55.640;37.532;2023-09-19T13:20:27;98916.50;;;22.02;54.62
43298;BME280;28892;55.640;37.532;2023-09-19T13:23:55;98913.59;;;22.19;54.24
43298;BME280;28892;55.640;37.532;2023-09-19T13:26:58;98910.88;;;22.19;54.10
43298;BME280;28892;55.640;37.532;2023-09-19T13:47:17;98895.50;;;21.51;56.59
43298;BME280;28892;55.640;37.532;2023-09-19T13:49:55;98893.84;;;21.40;57.60
43298;BME280;28892;55.640;37.532;2023-09-19T13:52:26;98891.69;;;21.42;57.33
43298;BME280;28892;55.640;37.532;2023-09-19T13:55:04;98894.91;;;21.44;57.34
43298;BME280;28892;55.640;37.532;2023-09-19T13:57:32;98899.03;;;21.52;57.32
43298;BME280;28892;55.640;37.532;2023-09-19T14:00:03;98900.41;;;21.59;57.11
43298;BME280;28892;55.640;37.532;2023-09-19T14:06:18;98891.25;;;21.60;56.86
43298;BME280;28892;55.640;37.532;2023-09-19T14:09:31;98894.25;;;21.69;56.94
43298;BME280;28892;55.640;37.532;2023-09-19T14:12:16;98889.63;;;21.64;56.33
43298;BME280;28892;55.640;37.532;2023-09-19T14:14:54;98889.56;;;21.54;55.05
43298;BME280;28892;55.640;37.532;2023-09-19T14:17:30;98875.66;;;21.68;54.17
43298;BME280;28892;55.640;37.532;2023-09-19T14:20:06;98886.16;;;21.69;54.54
43298;BME280;28892;55.640;37.532;2023-09-19T14:22:41;98875.34;;;21.64;53.76
43298;BME280;28892;55.640;37.532;2023-09-19T14:25:13;98884.34;;;21.80;52.94
43298;BME280;28892;55.640;37.532;2023-09-19T14:28:30;98867.88;;;21.87;52.70
43298;BME280;28892;55.640;37.532;2023-09-19T14:31:13;98869.78;;;21.97;52.59
43298;BME280;28892;55.640;37.532;2023-09-19T14:34:01;98877.31;;;21.79;51.87
43298;BME280;28892;55.640;37.532;2023-09-19T14:36:32;98876.75;;;21.77;52.01
43298;BME280;28892;55.640;37.532;2023-09-19T14:39:02;98866.78;;;21.83;51.68
43298;BME280;28892;55.640;37.532;2023-09-19T14:41:33;98869.47;;;21.77;51.82
43298;BME280;28892;55.640;37.532;2023-09-19T14:44:03;98863.47;;;21.65;51.06
43298;BME280;28892;55.640;37.532;2023-09-19T14:46:32;98872.88;;;21.57;50.14
43298;BME280;28892;55.640;37.532;2023-09-19T14:48:58;98873.72;;;21.63;50.48
43298;BME280;28892;55.640;37.532;2023-09-19T14:51:29;98872.63;;;21.64;49.64
43298;BME280;28892;55.640;37.532;2023-09-19T14:53:58;98862.97;;;21.68;49.75
43298;BME280;28892;55.640;37.532;2023-09-19T14:56:37;98856.38;;;21.48;48.92
43298;BME280;28892;55.640;37.532;2023-09-19T14:59:06;98866.38;;;21.53;49.00
43298;BME280;28892;55.640;37.532;2023-09-19T15:01:39;98867.69;;;21.50;48.84
43298;BME280;28892;55.640;37.532;2023-09-19T15:04:06;98865.28;;;21.54;48.16
43298;BME280;28892;55.640;37.532;2023-09-19T15:06:32;98861.75;;;21.43;48.81
43298;BME280;28892;55.640;37.532;2023-09-19T15:09:13;98861.41;;;21.34;49.31
43298;BME280;28892;55.640;37.532;2023-09-19T15:11:44;98857.94;;;21.34;48.93
43298;BME280;28892;55.640;37.532;2023-09-19T15:14:17;98864.63;;;21.26;49.38
43298;BME280;28892;55.640;37.532;2023-09-19T15:16:43;98862.72;;;21.21;48.68
43298;BME280;28892;55.640;37.532;2023-09-19T15:19:12;98849.97;;;21.06;49.35
43298;BME280;28892;55.640;37.532;2023-09-19T15:21:59;98859.97;;;21.11;48.94
43298;BME280;28892;55.640;37.532;2023-09-19T15:24:29;98852.88;;;21.00;49.34
43298;BME280;28892;55.640;37.532;2023-09-19T15:27:01;98853.44;;;21.07;49.40
43298;BME280;28892;55.640;37.532;2023-09-19T15:29:39;98857.75;;;21.03;49.51
43298;BME280;28892;55.640;37.532;2023-09-19T15:32:13;98853.69;;;21.00;49.40
43298;BME280;28892;55.640;37.532;2023-09-19T15:35:18;98867.44;;;20.99;50.23
43298;BME280;28892;55.640;37.532;2023-09-19T15:41:41;98851.66;;;20.80;51.38
43298;BME280;28892;55.640;37.532;2023-09-19T15:44:15;98862.13;;;20.76;51.33
43298;BME280;28892;55.640;37.532;2023-09-19T15:46:44;98856.66;;;20.66;51.22
43298;BME280;28892;55.640;37.532;2023-09-19T15:49:10;98844.41;;;20.53;51.53
43298;BME280;28892;55.640;37.532;2023-09-19T15:51:37;98844.69;;;20.51;51.93
43298;BME280;28892;55.640;37.532;2023-09-19T15:54:09;98857.13;;;20.58;51.60
43298;BME280;28892;55.640;37.532;2023-09-19T15:57:46;98842.84;;;20.57;51.96
43298;BME280;28892;55.640;37.532;2023-09-19T16:00:15;98842.47;;;20.43;52.20
43298;BME280;28892;55.640;37.532;2023-09-19T16:02:46;98843.53;;;20.42;52.54
43298;BME280;28892;55.640;37.532;2023-09-19T16:05:13;98854.19;;;20.27;52.56
43298;BME280;28892;55.640;37.532;2023-09-19T16:07:41;98851.97;;;20.23;53.12
43298;BME280;28892;55.640;37.532;2023-09-19T16:10:55;98853.75;;;20.40;52.64
43298;BME280;28892;55.640;37.532;2023-09-19T16:13:32;98846.28;;;20.20;53.20
43298;BME280;28892;55.640;37.532;2023-09-19T16:15:58;98863.22;;;20.15;53.55
43298;BME280;28892;55.640;37.532;2023-09-19T16:18:24;98854.78;;;20.06;53.93
43298;BME280;28892;55.640;37.532;2023-09-19T16:20:50;98857.44;;;20.01;54.38
43298;BME280;28892;55.640;37.532;2023-09-19T16:23:17;98859.72;;;19.92;55.05
43298;BME280;28892;55.640;37.532;2023-09-19T16:25:44;98858.69;;;19.93;54.70
43298;BME280;28892;55.640;37.532;2023-09-19T16:28:14;98856.91;;;19.82;54.83
43298;BME280;28892;55.640;37.532;2023-09-19T16:30:44;98854.28;;;19.87;54.31
43298;BME280;28892;55.640;37.532;2023-09-19T16:33:09;98854.06;;;19.89;54.36
43298;BME280;28892;55.640;37.532;2023-09-19T16:35:37;98862.59;;;19.86;54.42
43298;BME280;28892;55.640;37.532;2023-09-19T16:38:47;98858.09;;;19.91;54.56
43298;BME280;28892;55.640;37.532;2023-09-19T16:41:55;98852.16;;;19.89;54.08
43298;BME280;28892;55.640;37.532;2023-09-19T16:44:24;98865.09;;;19.92;54.07
43298;BME280;28892;55.640;37.532;2023-09-19T16:47:16;98864.50;;;19.85;53.92
43298;BME280;28892;55.640;37.532;2023-09-19T16:50:00;98861.41;;;19.76;54.04
43298;BME280;28892;55.640;37.532;2023-09-19T16:52:27;98867.13;;;19.80;54.13
43298;BME280;28892;55.640;37.532;2023-09-19T16:54:53;98861.13;;;19.73;54.41
43298;BME280;28892;55.640;37.532;2023-09-19T16:57:40;98870.94;;;19.84;54.67
43298;BME280;28892;55.640;37.532;2023-09-19T17:04:52;98876.94;;;19.91;54.47
43298;BME280;28892;55.640;37.532;2023-09-19T17:07:36;98879.47;;;19.76;55.26
43298;BME280;28892;55.640;37.532;2023-09-19T17:10:22;98876.09;;;19.63;55.75
43298;BME280;28892;55.640;37.532;2023-09-19T17:13:16;98877.94;;;19.63;55.64
43298;BME280;28892;55.640;37.532;2023-09-19T17:18:55;98878.78;;;19.63;55.97
43298;BME280;28892;55.640;37.532;2023-09-19T17:21:34;98886.25;;;19.61;55.64
43298;BME280;28892;55.640;37.532;2023-09-19T17:24:00;98872.44;;;19.52;56.21
43298;BME280;28892;55.640;37.532;2023-09-19T17:26:26;98884.91;;;19.59;55.80
43298;BME280;28892;55.640;37.532;2023-09-19T17:28:56;98871.31;;;19.48;56.15
43298;BME280;28892;55.640;37.532;2023-09-19T17:31:26;98887.78;;;19.52;56.19
43298;BME280;28892;55.640;37.532;2023-09-19T17:34:11;98882.97;;;19.54;56.15
43298;BME280;28892;55.640;37.532;2023-09-19T17:36:42;98889.47;;;19.58;56.69
43298;BME280;28892;55.640;37.532;2023-09-19T17:39:13;98887.28;;;19.55;56.31
43298;BME280;28892;55.640;37.532;2023-09-19T17:41:43;98886.72;;;19.53;56.31
43298;BME280;28892;55.640;37.532;2023-09-19T17:44:09;98885.00;;;19.47;56.30
43298;BME280;28892;55.640;37.532;2023-09-19T17:46:37;98885.19;;;19.40;56.96
43298;BME280;28892;55.640;37.532;2023-09-19T17:49:04;98890.81;;;19.38;56.79
43298;BME280;28892;55.640;37.532;2023-09-19T17:51:30;98884.88;;;19.36;56.88
43298;BME280;28892;55.640;37.532;2023-09-19T17:53:59;98890.81;;;19.38;56.79
43298;BME280;28892;55.640;37.532;2023-09-19T17:56:34;98887.50;;;19.31;56.97
43298;BME280;28892;55.640;37.532;2023-09-19T17:59:01;98879.50;;;19.36;56.74
43298;BME280;28892;55.640;37.532;2023-09-19T18:01:31;98884.88;;;19.36;57.04
43298;BME280;28892;55.640;37.532;2023-09-19T18:03:58;98876.75;;;19.31;56.47
43298;BME280;28892;55.640;37.532;2023-09-19T18:06:34;98884.44;;;19.45;56.38
43298;BME280;28892;55.640;37.532;2023-09-19T18:09:26;98877.88;;;19.35;56.53
43298;BME280;28892;55.640;37.532;2023-09-19T18:14:59;98887.84;;;19.57;56.38
43298;BME280;28892;55.640;37.532;2023-09-19T18:17:28;98872.72;;;19.34;56.14
43298;BME280;28892;55.640;37.532;2023-09-19T18:24:18;98879.13;;;19.27;57.06
43298;BME280;28892;55.640;37.532;2023-09-19T18:26:45;98869.03;;;19.18;56.99
43298;BME280;28892;55.640;37.532;2023-09-19T18:29:44;98871.47;;;19.19;56.81
43298;BME280;28892;55.640;37.532;2023-09-19T18:32:23;98875.78;;;19.20;56.58
43298;BME280;28892;55.640;37.532;2023-09-19T18:34:55;98874.75;;;19.04;57.05
43298;BME280;28892;55.640;37.532;2023-09-19T18:40:45;98870.81;;;18.95;57.20
43298;BME280;28892;55.640;37.532;2023-09-19T18:43:14;98865.38;;;18.90;57.37
43298;BME280;28892;55.640;37.532;2023-09-19T18:46:27;98865.06;;;19.03;56.96
43298;BME280;28892;55.640;37.532;2023-09-19T18:48:56;98877.81;;;18.96;57.13
43298;BME280;28892;55.640;37.532;2023-09-19T18:51:22;98872.88;;;18.88;57.43
43298;BME280;28892;55.640;37.532;2023-09-19T18:53:55;98870.56;;;18.96;56.87
43298;BME280;28892;55.640;37.532;2023-09-19T18:56:21;98875.97;;;19.13;56.80
43298;BME280;28892;55.640;37.532;2023-09-19T18:58:50;98866.13;;;19.02;56.76
43298;BME280;28892;55.640;37.532;2023-09-19T19:01:16;98871.09;;;18.76;57.49
43298;BME280;28892;55.640;37.532;2023-09-19T19:03:43;98869.53;;;18.80;57.21
43298;BME280;28892;55.640;37.532;2023-09-19T19:06:13;98863.50;;;18.73;57.39
43298;BME280;28892;55.640;37.532;2023-09-19T19:09:03;98863.44;;;18.85;56.96
43298;BME280;28892;55.640;37.532;2023-09-19T19:11:33;98862.59;;;18.84;56.90
43298;BME280;28892;55.640;37.532;2023-09-19T19:14:00;98864.50;;;18.67;57.29
43298;BME280;28892;55.640;37.532;2023-09-19T19:16:32;98851.06;;;18.67;57.52
43298;BME280;28892;55.640;37.532;2023-09-19T19:22:11;98859.59;;;18.64;57.63
43298;BME280;28892;55.640;37.532;2023-09-19T19:24:40;98871.56;;;18.73;57.02
43298;BME280;28892;55.640;37.532;2023-09-19T19:27:36;98853.66;;;18.62;56.91
43298;BME280;28892;55.640;37.532;2023-09-19T19:30:24;98865.78;;;18.64;57.38